Startpagina
METAR-TAF:

METAR-TAF

Vliegvelden :

Rarotonga, Cookeilanden

breedte: 21-12S, lengte: 159-49W, hoogte: 7 m

Actueel weer

Dit bericht is 49 minuten geleden gemaakt, om 13:00 UTC
Wind 6 kt uit het zuidwesten
Temperatuur 24°C
Vochtigheid 94%
Druk 1014 hPa
Zicht 10 km of meer
Verspreide wolken op 1800 ft

METAR: NCRG 231300Z 23006KT 9999 SCT018 24/23 Q1014 METAR

Tijdstip: 03:49 (13:49 UTC)

Verwachting

Dit bericht is 2 uur en het 49 minuten geleden gemaakt, om 11:00 UTC
Verwachting geldig van 23 om 12 UTC tot 24 om 12 UTC
Wind 7 kt uit het westen
Zicht 10 km of meer
Verspreide wolken op 1700 ft
lichte regenbuien
Kans 30% :
Tijdelijke
van 23 om 12 UTC tot 23 om 18 UTC
Zicht: 5000 m
Gebroken wolken op 1500 ft
regenbuien

TAF: NCRG 231100Z 2312/2412 26007KT 9999 -SHRA SCT017 PROB30 TEMPO 2312/2318 5000 SHRA BKN015

Waarnemingen en weersverwachtingen van meer dan 4000 vliegvelden (METAR en TAF).

De beschikbare stations zijn de gele en rode punten op de kaart.

Ga met uw muis naar het station om de naam te zien.

Klik dan om waarnemingen en weersverwachtingen te zien.

kaart wijzigen: klik op de groene knoppen met een zwart kruis om in te zoomen, op de groene knop met een streepje om uit te zoomen of op de groene pijlen voor aangrenzende kaarten.


METAR-TAF: